Time,TemperatureF,DewpointF,PressureIn,WindDirection,WindDirectionDegrees,WindSpeedMPH,WindSpeedGustMPH,Humidity,HourlyPrecipIn,Conditions,Clouds,dailyrainin,SoftwareType,DateUTC
2013-02-15 00:02:00,11.0,8.0,30.34,WNW,286,8.0,-999.0,89,-99.99,,,-99.99,,2013-02-15 06:02:00,
2013-02-15 00:11:00,12.0,9.0,30.34,WNW,293,11.0,-999.0,89,-99.99,,,-99.99,,2013-02-15 06:11:00,
2013-02-15 00:21:00,12.0,9.0,30.34,WNW,293,11.0,-999.0,89,-99.99,,,-99.99,,2013-02-15 06:21:00,
2013-02-15 00:31:00,13.0,10.0,30.34,WNW,303,9.0,-999.0,89,-99.99,,,-99.99,,2013-02-15 06:31:00,
2013-02-15 00:42:00,13.0,10.0,30.34,WNW,303,9.0,-999.0,89,-99.99,,,-99.99,,2013-02-15 06:42:00,
2013-02-15 00:52:00,14.0,11.0,30.35,WNW,295,10.0,-999.0,89,-99.99,,,-99.99,,2013-02-15 06:52:00,
2013-02-15 01:01:00,14.0,11.0,30.35,NW,309,9.0,-999.0,88,-99.99,,,-99.99,,2013-02-15 07:01:00,
2013-02-15 01:11:00,14.0,11.0,30.35,NW,309,9.0,-999.0,88,-99.99,,,-99.99,,2013-02-15 07:11:00,
2013-02-15 01:21:00,14.0,11.0,30.35,NW,305,7.0,-999.0,89,-99.99,,,-99.99,,2013-02-15 07:21:00,
2013-02-15 01:31:00,14.0,11.0,30.35,NW,308,7.0,-999.0,89,-99.99,,,-99.99,,2013-02-15 07:31:00,
2013-02-15 01:41:00,14.0,11.0,30.35,NW,308,7.0,-999.0,89,-99.99,,,-99.99,,2013-02-15 07:41:00,
2013-02-15 01:52:00,14.0,11.0,30.36,NW,306,10.0,-999.0,89,-99.99,,,-99.99,,2013-02-15 07:52:00,
2013-02-15 02:01:00,13.0,10.0,30.36,NW,315,6.0,-999.0,89,-99.99,,,-99.99,,2013-02-15 08:01:00,
2013-02-15 02:11:00,13.0,10.0,30.36,NW,315,6.0,-999.0,89,-99.99,,,-99.99,,2013-02-15 08:11:00,
2013-02-15 02:21:00,13.0,10.0,30.37,NW,311,7.0,-999.0,89,-99.99,,,-99.99,,2013-02-15 08:21:00,
2013-02-15 02:31:00,13.0,10.0,30.37,NW,321,4.0,-999.0,89,-99.99,,,-99.99,,2013-02-15 08:31:00,
2013-02-15 02:41:00,13.0,10.0,30.37,NW,321,4.0,-999.0,89,-99.99,,,-99.99,,2013-02-15 08:41:00,
2013-02-15 02:53:00,13.0,10.0,30.36,NW,321,3.0,-999.0,89,-99.99,,,-99.99,,2013-02-15 08:53:00,
2013-02-15 03:01:00,13.0,10.0,30.37,NW,316,4.0,-999.0,89,-99.99,,,-99.99,,2013-02-15 09:01:00,
2013-02-15 03:12:00,13.0,10.0,30.37,NW,316,4.0,-999.0,89,-99.99,,,-99.99,,2013-02-15 09:12:00,
2013-02-15 03:21:00,12.0,9.0,30.36,NW,315,4.0,-999.0,89,-99.99,,,-99.99,,2013-02-15 09:21:00,
2013-02-15 03:32:00,12.0,10.0,30.37,WNW,300,5.0,-999.0,90,-99.99,,,-99.99,,2013-02-15 09:32:00,
2013-02-15 03:41:00,12.0,10.0,30.37,WNW,300,5.0,-999.0,90,-99.99,,,-99.99,,2013-02-15 09:41:00,
2013-02-15 03:52:00,11.0,8.0,30.37,WNW,291,4.0,-999.0,89,-99.99,,,-99.99,,2013-02-15 09:52:00,
2013-02-15 04:01:00,11.0,9.0,30.37,West,271,5.0,-999.0,90,-99.99,,,-99.99,,2013-02-15 10:01:00,
2013-02-15 04:11:00,11.0,9.0,30.37,West,271,5.0,-999.0,90,-99.99,,,-99.99,,2013-02-15 10:11:00,
2013-02-15 04:21:00,12.0,10.0,30.38,West,281,5.0,-999.0,91,-99.99,,,-99.99,,2013-02-15 10:21:00,
2013-02-15 04:31:00,12.0,10.0,30.38,WNW,294,4.0,-999.0,91,-99.99,,,-99.99,,2013-02-15 10:31:00,
2013-02-15 04:41:00,12.0,10.0,30.38,WNW,294,4.0,-999.0,91,-99.99,,,-99.99,,2013-02-15 10:41:00,
2013-02-15 04:52:00,13.0,11.0,30.39,NW,311,5.0,-999.0,91,-99.99,,,-99.99,,2013-02-15 10:52:00,
2013-02-15 05:01:00,13.0,11.0,30.39,NW,313,6.0,-999.0,91,-99.99,,,-99.99,,2013-02-15 11:01:00,
2013-02-15 05:11:00,13.0,11.0,30.39,NW,313,6.0,-999.0,91,-99.99,,,-99.99,,2013-02-15 11:11:00,
2013-02-15 05:22:00,12.0,10.0,30.40,NW,315,6.0,-999.0,90,-99.99,,,-99.99,,2013-02-15 11:22:00,
2013-02-15 05:32:00,10.0,7.0,30.40,NW,315,5.0,-999.0,89,-99.99,,,-99.99,,2013-02-15 11:32:00,
2013-02-15 05:42:00,10.0,7.0,30.40,NW,315,5.0,-999.0,89,-99.99,,,-99.99,,2013-02-15 11:42:00,
2013-02-15 05:52:00,7.0,4.0,30.41,NW,314,4.0,-999.0,89,-99.99,,,-99.99,,2013-02-15 11:52:00,
2013-02-15 06:01:00,7.0,4.0,30.41,NW,306,5.0,-999.0,89,-99.99,,,-99.99,,2013-02-15 12:01:00,
2013-02-15 06:11:00,7.0,4.0,30.41,NW,306,5.0,-999.0,89,-99.99,,,-99.99,,2013-02-15 12:11:00,
2013-02-15 06:21:00,8.0,6.0,30.42,NW,304,5.0,-999.0,90,-99.99,,,-99.99,,2013-02-15 12:21:00,
2013-02-15 06:32:00,10.0,8.0,30.42,NW,319,4.0,-999.0,90,-99.99,,,-99.99,,2013-02-15 12:32:00,
2013-02-15 06:42:00,10.0,8.0,30.42,NW,319,4.0,-999.0,90,-99.99,,,-99.99,,2013-02-15 12:42:00,
2013-02-15 06:52:00,11.0,9.0,30.42,NW,322,6.0,-999.0,90,-99.99,,,-99.99,,2013-02-15 12:52:00,
2013-02-15 07:02:00,10.0,7.0,30.42,NW,325,4.0,-999.0,89,-99.99,,,-99.99,,2013-02-15 13:02:00,
2013-02-15 07:11:00,10.0,7.0,30.42,NW,325,4.0,-999.0,89,-99.99,,,-99.99,,2013-02-15 13:11:00,
2013-02-15 07:21:00,11.0,8.0,30.42,NW,304,6.0,-999.0,89,-99.99,,,-99.99,,2013-02-15 13:21:00,
2013-02-15 07:32:00,12.0,9.0,30.42,NW,309,7.0,-999.0,89,-99.99,,,-99.99,,2013-02-15 13:32:00,
2013-02-15 07:41:00,12.0,9.0,30.42,NW,309,7.0,-999.0,89,-99.99,,,-99.99,,2013-02-15 13:41:00,
2013-02-15 07:52:00,12.0,9.0,30.43,NW,316,6.0,-999.0,88,-99.99,,,-99.99,,2013-02-15 13:52:00,
2013-02-15 08:01:00,12.0,9.0,30.43,NNW,331,5.0,-999.0,89,-99.99,,,-99.99,,2013-02-15 14:01:00,
2013-02-15 08:11:00,12.0,9.0,30.43,NNW,331,5.0,-999.0,89,-99.99,,,-99.99,,2013-02-15 14:11:00,
2013-02-15 08:21:00,12.0,9.0,30.43,North,355,8.0,-999.0,89,-99.99,,,-99.99,,2013-02-15 14:21:00,
2013-02-15 08:32:00,11.0,8.0,30.44,NNW,346,5.0,-999.0,89,-99.99,,,-99.99,,2013-02-15 14:32:00,
2013-02-15 08:41:00,11.0,8.0,30.44,NNW,346,5.0,-999.0,89,-99.99,,,-99.99,,2013-02-15 14:41:00,
2013-02-15 08:52:00,11.0,8.0,30.44,NNW,331,5.0,-999.0,89,-99.99,,,-99.99,,2013-02-15 14:52:00,
2013-02-15 09:01:00,11.0,8.0,30.45,NW,322,6.0,-999.0,89,-99.99,,,-99.99,,2013-02-15 15:01:00,
2013-02-15 09:11:00,11.0,8.0,30.45,NW,322,6.0,-999.0,89,-99.99,,,-99.99,,2013-02-15 15:11:00,
2013-02-15 09:21:00,12.0,9.0,30.45,NW,313,6.0,-999.0,89,-99.99,,,-99.99,,2013-02-15 15:21:00,
2013-02-15 09:32:00,12.0,9.0,30.45,NW,313,5.0,-999.0,89,-99.99,,,-99.99,,2013-02-15 15:32:00,
2013-02-15 09:42:00,12.0,9.0,30.46,WNW,299,5.0,-999.0,89,-99.99,,,-99.99,,2013-02-15 15:42:00,
2013-02-15 09:52:00,12.0,9.0,30.46,WNW,299,5.0,-999.0,89,-99.99,,,-99.99,,2013-02-15 15:52:00,
2013-02-15 10:01:00,13.0,10.0,30.45,NW,305,4.0,-999.0,89,-99.99,,,-99.99,,2013-02-15 16:01:00,
2013-02-15 10:11:00,13.0,10.0,30.45,NW,305,4.0,-999.0,89,-99.99,,,-99.99,,2013-02-15 16:11:00,
2013-02-15 10:22:00,13.0,10.0,30.46,WNW,301,5.0,-999.0,88,-99.99,,,-99.99,,2013-02-15 16:22:00,
2013-02-15 10:32:00,14.0,11.0,30.46,WNW,295,8.0,-999.0,87,-99.99,,,-99.99,,2013-02-15 16:32:00,
2013-02-15 10:42:00,14.0,11.0,30.46,WNW,295,8.0,-999.0,87,-99.99,,,-99.99,,2013-02-15 16:42:00,
2013-02-15 10:52:00,14.0,11.0,30.46,WNW,291,8.0,-999.0,86,-99.99,,,-99.99,,2013-02-15 16:52:00,
2013-02-15 11:01:00,14.0,11.0,30.47,WNW,288,7.0,-999.0,86,-99.99,,,-99.99,,2013-02-15 17:01:00,
2013-02-15 11:11:00,13.0,9.0,30.47,WNW,292,7.0,-999.0,85,-99.99,,,-99.99,,2013-02-15 17:11:00,
2013-02-15 11:21:00,13.0,9.0,30.47,WNW,292,7.0,-999.0,85,-99.99,,,-99.99,,2013-02-15 17:21:00,
2013-02-15 11:32:00,13.0,9.0,30.47,NW,311,7.0,-999.0,84,-99.99,,,-99.99,,2013-02-15 17:32:00,
2013-02-15 11:41:00,13.0,9.0,30.47,NW,311,7.0,-999.0,84,-99.99,,,-99.99,,2013-02-15 17:41:00,
2013-02-15 11:52:00,12.0,8.0,30.47,WNW,302,6.0,-999.0,84,-99.99,,,-99.99,,2013-02-15 17:52:00,
2013-02-15 12:01:00,13.0,9.0,30.47,WNW,291,6.0,-999.0,85,-99.99,,,-99.99,,2013-02-15 18:01:00,
2013-02-15 12:11:00,13.0,9.0,30.47,WNW,291,6.0,-999.0,85,-99.99,,,-99.99,,2013-02-15 18:11:00,
2013-02-15 12:21:00,13.0,9.0,30.47,WNW,284,7.0,-999.0,85,-99.99,,,-99.99,,2013-02-15 18:21:00,
2013-02-15 12:31:00,13.0,9.0,30.46,West,280,5.0,-999.0,85,-99.99,,,-99.99,,2013-02-15 18:31:00,
2013-02-15 12:42:00,13.0,9.0,30.46,West,280,5.0,-999.0,85,-99.99,,,-99.99,,2013-02-15 18:42:00,
2013-02-15 12:52:00,13.0,9.0,30.46,West,277,6.0,-999.0,85,-99.99,,,-99.99,,2013-02-15 18:52:00,
2013-02-15 13:01:00,13.0,9.0,30.45,West,276,7.0,-999.0,85,-99.99,,,-99.99,,2013-02-15 19:01:00,
2013-02-15 13:11:00,13.0,9.0,30.45,West,276,7.0,-999.0,85,-99.99,,,-99.99,,2013-02-15 19:11:00,
2013-02-15 13:22:00,13.0,9.0,30.45,WNW,294,8.0,-999.0,85,-99.99,,,-99.99,,2013-02-15 19:22:00,
2013-02-15 13:32:00,13.0,9.0,30.44,West,273,7.0,-999.0,84,-99.99,,,-99.99,,2013-02-15 19:32:00,
2013-02-15 13:41:00,13.0,9.0,30.44,West,273,7.0,-999.0,84,-99.99,,,-99.99,,2013-02-15 19:41:00,
2013-02-15 13:52:00,14.0,10.0,30.44,WNW,290,6.0,-999.0,84,-99.99,,,-99.99,,2013-02-15 19:52:00,
2013-02-15 14:01:00,14.0,10.0,30.43,West,279,7.0,-999.0,84,-99.99,,,-99.99,,2013-02-15 20:01:00,
2013-02-15 14:11:00,14.0,10.0,30.43,West,279,7.0,-999.0,84,-99.99,,,-99.99,,2013-02-15 20:11:00,
2013-02-15 14:21:00,14.0,12.0,30.43,West,279,6.0,-999.0,92,-99.99,,,-99.99,,2013-02-15 20:21:00,
2013-02-15 14:32:00,14.0,10.0,30.44,West,281,5.0,-999.0,84,-99.99,,,-99.99,,2013-02-15 20:32:00,
2013-02-15 14:42:00,14.0,10.0,30.44,West,281,5.0,-999.0,84,-99.99,,,-99.99,,2013-02-15 20:42:00,
2013-02-15 14:52:00,15.0,11.0,30.43,West,279,4.0,-999.0,83,-99.99,,,-99.99,,2013-02-15 20:52:00,
2013-02-15 15:01:00,15.0,11.0,30.42,West,279,2.0,-999.0,82,-99.99,,,-99.99,,2013-02-15 21:01:00,
2013-02-15 15:11:00,15.0,11.0,30.42,West,279,2.0,-999.0,82,-99.99,,,-99.99,,2013-02-15 21:11:00,
2013-02-15 15:21:00,15.0,10.0,30.41,West,279,2.0,-999.0,81,-99.99,,,-99.99,,2013-02-15 21:21:00,
2013-02-15 15:31:00,15.0,10.0,30.41,West,279,3.0,-999.0,80,-99.99,,,-99.99,,2013-02-15 21:31:00,
2013-02-15 15:42:00,15.0,10.0,30.41,West,279,3.0,-999.0,80,-99.99,,,-99.99,,2013-02-15 21:42:00,
2013-02-15 15:52:00,15.0,10.0,30.41,West,279,3.0,-999.0,80,-99.99,,,-99.99,,2013-02-15 21:52:00,
2013-02-15 16:02:00,14.0,9.0,30.40,West,279,4.0,-999.0,81,-99.99,,,-99.99,,2013-02-15 22:02:00,
2013-02-15 16:11:00,14.0,9.0,30.40,West,279,4.0,-999.0,81,-99.99,,,-99.99,,2013-02-15 22:11:00,
2013-02-15 16:21:00,15.0,10.0,30.40,West,279,2.0,-999.0,80,-99.99,,,-99.99,,2013-02-15 22:21:00,
2013-02-15 16:31:00,14.0,9.0,30.40,West,279,2.0,-999.0,79,-99.99,,,-99.99,,2013-02-15 22:31:00,
2013-02-15 16:41:00,14.0,9.0,30.40,West,279,2.0,-999.0,79,-99.99,,,-99.99,,2013-02-15 22:41:00,
2013-02-15 16:51:00,14.0,9.0,30.40,West,279,2.0,-999.0,79,-99.99,,,-99.99,,2013-02-15 22:51:00,
2013-02-15 17:02:00,14.0,8.0,30.37,West,279,0.0,-999.0,78,-99.99,,,-99.99,,2013-02-15 23:02:00,
2013-02-15 17:11:00,14.0,8.0,30.37,West,279,0.0,-999.0,78,-99.99,,,-99.99,,2013-02-15 23:11:00,
2013-02-15 17:21:00,13.0,8.0,30.37,West,279,0.0,-999.0,80,-99.99,,,-99.99,,2013-02-15 23:21:00,
2013-02-15 17:31:00,13.0,8.0,30.37,West,279,0.0,-999.0,80,-99.99,,,-99.99,,2013-02-15 23:31:00,
2013-02-15 17:42:00,13.0,8.0,30.37,West,279,0.0,-999.0,80,-99.99,,,-99.99,,2013-02-15 23:42:00,
2013-02-15 17:52:00,10.0,6.0,30.36,SW,230,2.0,-999.0,82,-99.99,,,-99.99,,2013-02-15 23:52:00,
2013-02-15 18:02:00,10.0,6.0,30.36,SW,230,0.0,-999.0,83,-99.99,,,-99.99,,2013-02-16 00:02:00,
2013-02-15 18:11:00,10.0,6.0,30.36,SW,230,0.0,-999.0,83,-99.99,,,-99.99,,2013-02-16 00:11:00,
2013-02-15 18:21:00,9.0,5.0,30.35,SW,230,0.0,-999.0,84,-99.99,,,-99.99,,2013-02-16 00:21:00,
2013-02-15 18:32:00,9.0,5.0,30.34,SW,230,0.0,-999.0,85,-99.99,,,-99.99,,2013-02-16 00:32:00,
2013-02-15 18:41:00,9.0,5.0,30.34,SW,230,0.0,-999.0,85,-99.99,,,-99.99,,2013-02-16 00:41:00,
2013-02-15 18:52:00,9.0,5.0,30.34,SW,229,2.0,-999.0,85,-99.99,,,-99.99,,2013-02-16 00:52:00,
2013-02-15 19:02:00,9.0,5.0,30.33,SW,224,3.0,-999.0,85,-99.99,,,-99.99,,2013-02-16 01:02:00,
2013-02-15 19:11:00,9.0,5.0,30.33,SW,224,3.0,-999.0,85,-99.99,,,-99.99,,2013-02-16 01:11:00,
2013-02-15 19:21:00,9.0,5.0,30.33,SW,224,3.0,-999.0,85,-99.99,,,-99.99,,2013-02-16 01:21:00,
2013-02-15 19:31:00,9.0,5.0,30.32,SW,221,3.0,-999.0,85,-99.99,,,-99.99,,2013-02-16 01:31:00,
2013-02-15 19:41:00,9.0,5.0,30.32,SW,221,3.0,-999.0,85,-99.99,,,-99.99,,2013-02-16 01:41:00,
2013-02-15 19:51:00,9.0,5.0,30.31,SSW,210,5.0,-999.0,85,-99.99,,,-99.99,,2013-02-16 01:51:00,
2013-02-15 20:01:00,8.0,4.0,30.29,SSW,207,3.0,-999.0,85,-99.99,,,-99.99,,2013-02-16 02:01:00,
2013-02-15 20:11:00,8.0,4.0,30.29,SSW,207,3.0,-999.0,85,-99.99,,,-99.99,,2013-02-16 02:11:00,
2013-02-15 20:21:00,8.0,4.0,30.29,SSW,207,3.0,-999.0,85,-99.99,,,-99.99,,2013-02-16 02:21:00,
2013-02-15 20:31:00,8.0,5.0,30.27,SSW,202,1.0,-999.0,86,-99.99,,,-99.99,,2013-02-16 02:31:00,
2013-02-15 20:42:00,8.0,5.0,30.27,SSW,202,1.0,-999.0,86,-99.99,,,-99.99,,2013-02-16 02:42:00,
2013-02-15 20:52:00,7.0,4.0,30.27,SSW,202,1.0,-999.0,86,-99.99,,,-99.99,,2013-02-16 02:52:00,
2013-02-15 21:01:00,7.0,4.0,30.25,SSW,202,0.0,-999.0,87,-99.99,,,-99.99,,2013-02-16 03:01:00,
2013-02-15 21:11:00,7.0,4.0,30.25,SSW,202,0.0,-999.0,87,-99.99,,,-99.99,,2013-02-16 03:11:00,
2013-02-15 21:21:00,9.0,6.0,30.24,SSW,201,2.0,-999.0,88,-99.99,,,-99.99,,2013-02-16 03:21:00,
2013-02-15 21:32:00,8.0,5.0,30.23,SSW,200,3.0,-999.0,87,-99.99,,,-99.99,,2013-02-16 03:32:00,
2013-02-15 21:41:00,8.0,5.0,30.23,SSW,200,3.0,-999.0,87,-99.99,,,-99.99,,2013-02-16 03:41:00,
2013-02-15 21:52:00,10.0,7.0,30.22,South,183,4.0,-999.0,88,-99.99,,,-99.99,,2013-02-16 03:52:00,
2013-02-15 22:01:00,10.0,7.0,30.22,South,183,4.0,-999.0,88,-99.99,,,-99.99,,2013-02-16 04:01:00,
2013-02-15 22:11:00,10.0,7.0,30.22,South,183,4.0,-999.0,88,-99.99,,,-99.99,,2013-02-16 04:11:00,
2013-02-15 22:21:00,11.0,8.0,30.22,SSE,160,6.0,-999.0,88,-99.99,,,-99.99,,2013-02-16 04:21:00,
2013-02-15 22:32:00,11.0,8.0,30.21,SSE,158,5.0,-999.0,87,-99.99,,,-99.99,,2013-02-16 04:32:00,
2013-02-15 22:42:00,11.0,8.0,30.21,SSE,158,5.0,-999.0,87,-99.99,,,-99.99,,2013-02-16 04:42:00,
2013-02-15 22:51:00,11.0,8.0,30.19,SSE,155,6.0,-999.0,87,-99.99,,,-99.99,,2013-02-16 04:51:00,
2013-02-15 23:01:00,11.0,8.0,30.19,SSE,155,6.0,-999.0,87,-99.99,,,-99.99,,2013-02-16 05:01:00,
2013-02-15 23:12:00,11.0,8.0,30.19,SSE,155,6.0,-999.0,87,-99.99,,,-99.99,,2013-02-16 05:12:00,
2013-02-15 23:22:00,11.0,8.0,30.17,SSE,159,5.0,-999.0,87,-99.99,,,-99.99,,2013-02-16 05:22:00,
2013-02-15 23:32:00,11.0,8.0,30.17,SSE,159,5.0,-999.0,87,-99.99,,,-99.99,,2013-02-16 05:32:00,
2013-02-15 23:42:00,11.0,8.0,30.17,SSE,159,5.0,-999.0,87,-99.99,,,-99.99,,2013-02-16 05:42:00,
2013-02-15 23:52:00,12.0,9.0,30.16,SSE,157,5.0,-999.0,87,-99.99,,,-99.99,,2013-02-16 05:52:00,